This is the latest recevied weather packets stored in our database for station/object W5HKR. If no packets are shown the sender has not sent any weather packets the latest 10 day(s).
| Time | Temp. | Humidity | Pressure | Rain* | Wind** | Luminosity | Snow |
|---|---|---|---|---|---|---|---|
| 1777514002 | 21.11° C | 85% | 983.1 hPa | 0 mm | - | - | - |
| 1777513703 | 21.11° C | 85% | 982.2 hPa | 0 mm | - | - | - |
| 1777513595 | 18.33° C | 91% | 990.6 hPa | 0 mm | - | - | - |
| 1777512803 | 21.11° C | 85% | 982.3 hPa | 0 mm | - | - | - |
| 1777512504 | 21.11° C | 85% | 982.2 hPa | 0 mm | - | - | - |
| 1777512204 | 18.33° C | 91% | 990.6 hPa | 0 mm | - | - | - |
| 1777511903 | 21.67° C | 85% | 982.5 hPa | 0 mm | - | - | - |
| 1777511604 | 18.33° C | 91% | 990.6 hPa | 0 mm | - | - | - |
| 1777511435 | 21.67° C | 84% | 982.3 hPa | 0 mm | - | - | - |
| 1777511303 | 18.33° C | 91% | 990.6 hPa | 0 mm | - | - | - |
| 1777511004 | 21.67° C | 85% | 982.1 hPa | 0 mm | - | - | - |
| 1777510703 | 21.67° C | 84% | 982.4 hPa | 0 mm | - | - | - |
| 1777510404 | 18.33° C | 91% | 990.6 hPa | 0 mm | - | - | - |
| 1777510355 | 18.33° C | 91% | 990.6 hPa | 0 mm | - | - | - |
| 1777510104 | 22.22° C | 83% | 982 hPa | 0 mm | - | - | - |
| 1777509804 | 22.78° C | 83% | 982.1 hPa | 0 mm | - | - | - |
| 1777509276 | 18.33° C | 91% | 990.6 hPa | 0 mm | - | - | - |
| 1777509203 | 23.33° C | 83% | 981.7 hPa | 0 mm | - | - | - |
| 1777508903 | 23.33° C | 83% | 982.1 hPa | 0 mm | - | - | - |
| 1777508603 | 23.89° C | 82% | 981.8 hPa | 0 mm | - | - | - |
| 1777508303 | 18.33° C | 91% | 990.6 hPa | 0 mm | - | - | - |
| 1777508195 | 25° C | 81% | 981.4 hPa | 0 mm | - | - | - |
| 1777508003 | 25.56° C | 81% | 981.5 hPa | 0 mm | - | - | - |
| 1777507704 | 26.11° C | 82% | 981.3 hPa | 0 mm | - | - | - |
| 1777507405 | 26.67° C | 81% | 981.4 hPa | 0 mm | - | - | - |
* Rain latest hour (hover to see other rain measurements)
** Current wind speed in m/s (hover to see current wind gust speed)